< < Back
Terminal Aerodrome Forecast


Current Version              Previous Versions:   1  2  3  4  5  6  7  8  9  

Terminal Aerodrome Forecast

826
FTUS42 KILM 291725
TAFFLO
TAF
KFLO 291725Z 2918/3018 10005KT P6SM SCT060
     FM300200 VRB03KT P6SM FEW060 SCT120
     FM300900 00000KT 4SM BR SCT001
     FM301500 20003KT P6SM SCT250=

Latest METAR

144
SAUS70 KWBC 301000 RRC
MTRFLO
METAR KFLO 300953Z AUTO 08003KT 10SM CLR 23/21 A2994 RMK AO2 SLP134
T02330211


USA.gov is the U.S. government's official web portal to all federal, state and local government web resources and services.